sensor_id;sensor_type;location;lat;lon;timestamp;P1;durP1;ratioP1;P2;durP2;ratioP2
11398;SDS011;5755;48.116;11.608;2023-11-22T00:00:28;10.80;;;7.78;;
11398;SDS011;5755;48.116;11.608;2023-11-22T00:02:56;10.70;;;7.65;;
11398;SDS011;5755;48.116;11.608;2023-11-22T00:05:23;11.85;;;8.10;;
11398;SDS011;5755;48.116;11.608;2023-11-22T00:07:50;11.07;;;7.65;;
11398;SDS011;5755;48.116;11.608;2023-11-22T00:10:18;11.48;;;7.57;;
11398;SDS011;5755;48.116;11.608;2023-11-22T00:12:47;10.40;;;7.40;;
11398;SDS011;5755;48.116;11.608;2023-11-22T00:15:15;10.45;;;7.50;;
11398;SDS011;5755;48.116;11.608;2023-11-22T00:17:43;9.27;;;7.38;;
11398;SDS011;5755;48.116;11.608;2023-11-22T00:20:10;12.20;;;7.75;;
11398;SDS011;5755;48.116;11.608;2023-11-22T00:22:37;8.23;;;7.38;;
11398;SDS011;5755;48.116;11.608;2023-11-22T00:25:05;10.13;;;7.50;;
11398;SDS011;5755;48.116;11.608;2023-11-22T00:27:34;10.65;;;7.35;;
11398;SDS011;5755;48.116;11.608;2023-11-22T00:30:01;14.15;;;7.30;;
11398;SDS011;5755;48.116;11.608;2023-11-22T00:32:31;9.43;;;7.68;;
11398;SDS011;5755;48.116;11.608;2023-11-22T00:34:57;11.57;;;7.43;;
11398;SDS011;5755;48.116;11.608;2023-11-22T00:37:24;10.63;;;8.02;;
11398;SDS011;5755;48.116;11.608;2023-11-22T00:39:51;11.00;;;6.88;;
11398;SDS011;5755;48.116;11.608;2023-11-22T00:42:18;10.07;;;7.78;;
11398;SDS011;5755;48.116;11.608;2023-11-22T00:44:46;9.60;;;7.05;;
11398;SDS011;5755;48.116;11.608;2023-11-22T00:47:13;9.00;;;6.90;;
11398;SDS011;5755;48.116;11.608;2023-11-22T00:49:43;10.38;;;7.60;;
11398;SDS011;5755;48.116;11.608;2023-11-22T00:52:10;9.25;;;7.20;;
11398;SDS011;5755;48.116;11.608;2023-11-22T00:54:38;11.30;;;7.53;;
11398;SDS011;5755;48.116;11.608;2023-11-22T00:57:05;10.77;;;7.88;;
11398;SDS011;5755;48.116;11.608;2023-11-22T00:59:33;12.95;;;7.40;;
11398;SDS011;5755;48.116;11.608;2023-11-22T01:01:59;11.15;;;7.28;;
11398;SDS011;5755;48.116;11.608;2023-11-22T01:04:27;7.82;;;7.03;;
11398;SDS011;5755;48.116;11.608;2023-11-22T01:06:56;10.77;;;7.80;;
11398;SDS011;5755;48.116;11.608;2023-11-22T01:09:23;9.00;;;8.10;;
11398;SDS011;5755;48.116;11.608;2023-11-22T01:11:50;10.88;;;7.32;;
11398;SDS011;5755;48.116;11.608;2023-11-22T01:14:17;10.35;;;7.65;;
11398;SDS011;5755;48.116;11.608;2023-11-22T01:16:43;10.82;;;7.30;;
11398;SDS011;5755;48.116;11.608;2023-11-22T01:19:10;10.73;;;7.38;;
11398;SDS011;5755;48.116;11.608;2023-11-22T01:21:37;9.38;;;7.10;;
11398;SDS011;5755;48.116;11.608;2023-11-22T01:24:06;9.02;;;7.32;;
11398;SDS011;5755;48.116;11.608;2023-11-22T01:26:33;10.25;;;7.72;;
11398;SDS011;5755;48.116;11.608;2023-11-22T01:29:00;10.05;;;7.38;;
11398;SDS011;5755;48.116;11.608;2023-11-22T01:31:29;9.65;;;7.55;;
11398;SDS011;5755;48.116;11.608;2023-11-22T01:33:56;9.90;;;7.28;;
11398;SDS011;5755;48.116;11.608;2023-11-22T01:36:23;10.85;;;7.05;;
11398;SDS011;5755;48.116;11.608;2023-11-22T01:38:52;10.63;;;7.40;;
11398;SDS011;5755;48.116;11.608;2023-11-22T01:41:20;8.63;;;7.00;;
11398;SDS011;5755;48.116;11.608;2023-11-22T01:43:47;8.02;;;6.63;;
11398;SDS011;5755;48.116;11.608;2023-11-22T01:46:17;7.18;;;6.45;;
11398;SDS011;5755;48.116;11.608;2023-11-22T01:48:49;12.18;;;6.80;;
11398;SDS011;5755;48.116;11.608;2023-11-22T01:51:17;9.30;;;6.47;;
11398;SDS011;5755;48.116;11.608;2023-11-22T01:53:45;8.90;;;5.75;;
11398;SDS011;5755;48.116;11.608;2023-11-22T01:56:13;7.43;;;6.60;;
11398;SDS011;5755;48.116;11.608;2023-11-22T01:58:43;7.70;;;6.15;;
11398;SDS011;5755;48.116;11.608;2023-11-22T02:01:10;7.70;;;5.95;;
11398;SDS011;5755;48.116;11.608;2023-11-22T02:03:39;7.68;;;6.18;;
11398;SDS011;5755;48.116;11.608;2023-11-22T02:06:06;7.57;;;6.13;;
11398;SDS011;5755;48.116;11.608;2023-11-22T02:08:34;6.82;;;5.50;;
11398;SDS011;5755;48.116;11.608;2023-11-22T02:11:01;6.68;;;4.80;;
11398;SDS011;5755;48.116;11.608;2023-11-22T02:13:29;5.30;;;4.57;;
11398;SDS011;5755;48.116;11.608;2023-11-22T02:15:57;5.28;;;4.78;;
11398;SDS011;5755;48.116;11.608;2023-11-22T02:18:26;5.23;;;4.70;;
11398;SDS011;5755;48.116;11.608;2023-11-22T02:20:53;5.60;;;5.10;;
11398;SDS011;5755;48.116;11.608;2023-11-22T02:23:22;7.20;;;5.10;;
11398;SDS011;5755;48.116;11.608;2023-11-22T02:25:48;6.77;;;5.77;;
11398;SDS011;5755;48.116;11.608;2023-11-22T02:28:15;5.30;;;4.70;;
11398;SDS011;5755;48.116;11.608;2023-11-22T02:30:43;6.33;;;4.97;;
11398;SDS011;5755;48.116;11.608;2023-11-22T02:33:10;5.40;;;4.80;;
11398;SDS011;5755;48.116;11.608;2023-11-22T02:35:37;4.93;;;4.37;;
11398;SDS011;5755;48.116;11.608;2023-11-22T02:38:04;5.73;;;4.57;;
11398;SDS011;5755;48.116;11.608;2023-11-22T02:40:32;8.40;;;5.43;;
11398;SDS011;5755;48.116;11.608;2023-11-22T02:42:59;4.97;;;4.40;;
11398;SDS011;5755;48.116;11.608;2023-11-22T02:45:32;5.00;;;4.13;;
11398;SDS011;5755;48.116;11.608;2023-11-22T02:47:59;4.60;;;3.93;;
11398;SDS011;5755;48.116;11.608;2023-11-22T02:50:28;4.30;;;3.90;;
11398;SDS011;5755;48.116;11.608;2023-11-22T02:52:56;5.97;;;4.33;;
11398;SDS011;5755;48.116;11.608;2023-11-22T02:55:23;4.47;;;4.07;;
11398;SDS011;5755;48.116;11.608;2023-11-22T02:57:52;4.53;;;3.60;;
11398;SDS011;5755;48.116;11.608;2023-11-22T03:00:20;4.47;;;3.70;;
11398;SDS011;5755;48.116;11.608;2023-11-22T03:02:47;4.80;;;3.80;;
11398;SDS011;5755;48.116;11.608;2023-11-22T03:05:18;3.83;;;3.47;;
11398;SDS011;5755;48.116;11.608;2023-11-22T03:07:45;5.60;;;3.37;;
11398;SDS011;5755;48.116;11.608;2023-11-22T03:10:13;3.57;;;3.27;;
11398;SDS011;5755;48.116;11.608;2023-11-22T03:12:43;4.03;;;3.43;;
11398;SDS011;5755;48.116;11.608;2023-11-22T03:15:11;4.10;;;3.50;;
11398;SDS011;5755;48.116;11.608;2023-11-22T03:17:38;3.87;;;3.33;;
11398;SDS011;5755;48.116;11.608;2023-11-22T03:20:05;3.90;;;3.50;;
11398;SDS011;5755;48.116;11.608;2023-11-22T03:22:35;4.03;;;3.63;;
11398;SDS011;5755;48.116;11.608;2023-11-22T03:25:03;3.90;;;3.43;;
11398;SDS011;5755;48.116;11.608;2023-11-22T03:27:30;4.00;;;3.60;;
11398;SDS011;5755;48.116;11.608;2023-11-22T03:29:57;4.03;;;3.20;;
11398;SDS011;5755;48.116;11.608;2023-11-22T03:32:25;3.80;;;3.37;;
11398;SDS011;5755;48.116;11.608;2023-11-22T03:34:54;3.20;;;2.90;;
11398;SDS011;5755;48.116;11.608;2023-11-22T03:37:22;3.53;;;3.17;;
11398;SDS011;5755;48.116;11.608;2023-11-22T03:39:49;3.30;;;3.00;;
11398;SDS011;5755;48.116;11.608;2023-11-22T03:42:16;4.73;;;3.80;;
11398;SDS011;5755;48.116;11.608;2023-11-22T03:44:43;4.33;;;3.50;;
11398;SDS011;5755;48.116;11.608;2023-11-22T03:47:10;4.00;;;3.40;;
11398;SDS011;5755;48.116;11.608;2023-11-22T03:49:41;4.17;;;3.50;;
11398;SDS011;5755;48.116;11.608;2023-11-22T03:52:08;4.77;;;3.43;;
11398;SDS011;5755;48.116;11.608;2023-11-22T03:54:36;4.00;;;3.60;;
11398;SDS011;5755;48.116;11.608;2023-11-22T03:57:04;4.20;;;3.70;;
11398;SDS011;5755;48.116;11.608;2023-11-22T03:59:31;5.10;;;3.60;;
11398;SDS011;5755;48.116;11.608;2023-11-22T04:01:58;4.60;;;3.97;;
11398;SDS011;5755;48.116;11.608;2023-11-22T04:04:25;4.27;;;3.63;;
11398;SDS011;5755;48.116;11.608;2023-11-22T04:06:53;6.10;;;3.70;;
11398;SDS011;5755;48.116;11.608;2023-11-22T04:09:20;4.97;;;3.90;;
11398;SDS011;5755;48.116;11.608;2023-11-22T04:11:47;4.17;;;3.50;;
11398;SDS011;5755;48.116;11.608;2023-11-22T04:14:14;3.77;;;3.37;;
11398;SDS011;5755;48.116;11.608;2023-11-22T04:16:41;4.63;;;3.77;;
11398;SDS011;5755;48.116;11.608;2023-11-22T04:19:08;4.63;;;3.70;;
11398;SDS011;5755;48.116;11.608;2023-11-22T04:21:35;4.83;;;3.90;;
11398;SDS011;5755;48.116;11.608;2023-11-22T04:24:04;4.70;;;3.30;;
11398;SDS011;5755;48.116;11.608;2023-11-22T04:26:32;4.20;;;3.60;;
11398;SDS011;5755;48.116;11.608;2023-11-22T04:28:59;4.30;;;3.77;;
11398;SDS011;5755;48.116;11.608;2023-11-22T04:31:26;4.37;;;3.30;;
11398;SDS011;5755;48.116;11.608;2023-11-22T04:33:54;4.80;;;3.70;;
11398;SDS011;5755;48.116;11.608;2023-11-22T04:36:22;4.77;;;3.37;;
11398;SDS011;5755;48.116;11.608;2023-11-22T04:38:51;4.60;;;3.83;;
11398;SDS011;5755;48.116;11.608;2023-11-22T04:41:19;4.97;;;3.30;;
11398;SDS011;5755;48.116;11.608;2023-11-22T04:43:45;4.17;;;3.77;;
11398;SDS011;5755;48.116;11.608;2023-11-22T04:46:12;4.47;;;3.47;;
11398;SDS011;5755;48.116;11.608;2023-11-22T04:48:39;3.77;;;3.40;;
11398;SDS011;5755;48.116;11.608;2023-11-22T04:51:09;6.00;;;3.80;;
11398;SDS011;5755;48.116;11.608;2023-11-22T04:53:37;4.10;;;3.70;;
11398;SDS011;5755;48.116;11.608;2023-11-22T04:56:04;4.10;;;3.70;;
11398;SDS011;5755;48.116;11.608;2023-11-22T04:58:33;3.67;;;3.20;;
11398;SDS011;5755;48.116;11.608;2023-11-22T05:01:01;3.83;;;3.43;;
11398;SDS011;5755;48.116;11.608;2023-11-22T05:03:29;4.93;;;3.60;;
11398;SDS011;5755;48.116;11.608;2023-11-22T05:05:56;4.23;;;3.60;;
11398;SDS011;5755;48.116;11.608;2023-11-22T05:08:23;4.03;;;3.57;;
11398;SDS011;5755;48.116;11.608;2023-11-22T05:10:50;3.43;;;3.10;;
11398;SDS011;5755;48.116;11.608;2023-11-22T05:13:17;3.77;;;3.30;;
11398;SDS011;5755;48.116;11.608;2023-11-22T05:15:45;4.07;;;3.27;;
11398;SDS011;5755;48.116;11.608;2023-11-22T05:18:12;3.70;;;3.30;;
11398;SDS011;5755;48.116;11.608;2023-11-22T05:20:39;3.50;;;3.20;;
11398;SDS011;5755;48.116;11.608;2023-11-22T05:23:05;3.53;;;3.23;;
11398;SDS011;5755;48.116;11.608;2023-11-22T05:25:32;3.70;;;3.20;;
11398;SDS011;5755;48.116;11.608;2023-11-22T05:28:01;3.20;;;2.90;;
11398;SDS011;5755;48.116;11.608;2023-11-22T05:30:28;3.53;;;3.00;;
11398;SDS011;5755;48.116;11.608;2023-11-22T05:32:56;3.37;;;3.03;;
11398;SDS011;5755;48.116;11.608;2023-11-22T05:35:23;5.10;;;3.20;;
11398;SDS011;5755;48.116;11.608;2023-11-22T05:37:50;3.23;;;2.70;;
11398;SDS011;5755;48.116;11.608;2023-11-22T05:40:17;4.10;;;3.30;;
11398;SDS011;5755;48.116;11.608;2023-11-22T05:42:44;3.83;;;2.90;;
11398;SDS011;5755;48.116;11.608;2023-11-22T05:45:11;3.57;;;2.93;;
11398;SDS011;5755;48.116;11.608;2023-11-22T05:47:38;3.33;;;2.93;;
11398;SDS011;5755;48.116;11.608;2023-11-22T05:50:07;3.20;;;2.87;;
11398;SDS011;5755;48.116;11.608;2023-11-22T05:52:35;3.57;;;2.97;;
11398;SDS011;5755;48.116;11.608;2023-11-22T05:55:02;3.27;;;2.90;;
11398;SDS011;5755;48.116;11.608;2023-11-22T05:57:29;2.73;;;2.53;;
11398;SDS011;5755;48.116;11.608;2023-11-22T05:59:56;3.10;;;2.60;;
11398;SDS011;5755;48.116;11.608;2023-11-22T06:02:23;2.87;;;2.53;;
11398;SDS011;5755;48.116;11.608;2023-11-22T06:04:50;2.87;;;2.60;;
11398;SDS011;5755;48.116;11.608;2023-11-22T06:07:20;3.17;;;2.87;;
11398;SDS011;5755;48.116;11.608;2023-11-22T06:09:46;3.00;;;2.70;;
11398;SDS011;5755;48.116;11.608;2023-11-22T06:12:13;3.57;;;2.73;;
11398;SDS011;5755;48.116;11.608;2023-11-22T06:14:41;2.83;;;2.57;;
11398;SDS011;5755;48.116;11.608;2023-11-22T06:17:08;3.20;;;2.67;;
11398;SDS011;5755;48.116;11.608;2023-11-22T06:19:35;2.50;;;2.30;;
11398;SDS011;5755;48.116;11.608;2023-11-22T06:22:02;3.23;;;2.37;;
11398;SDS011;5755;48.116;11.608;2023-11-22T06:24:30;3.83;;;2.83;;
11398;SDS011;5755;48.116;11.608;2023-11-22T06:26:58;2.87;;;2.40;;
11398;SDS011;5755;48.116;11.608;2023-11-22T06:29:25;3.20;;;2.77;;
11398;SDS011;5755;48.116;11.608;2023-11-22T06:31:54;3.00;;;2.70;;
11398;SDS011;5755;48.116;11.608;2023-11-22T06:34:21;3.43;;;2.90;;
11398;SDS011;5755;48.116;11.608;2023-11-22T06:36:48;3.23;;;2.93;;
11398;SDS011;5755;48.116;11.608;2023-11-22T06:39:14;3.63;;;3.30;;
11398;SDS011;5755;48.116;11.608;2023-11-22T06:41:43;3.60;;;3.30;;
11398;SDS011;5755;48.116;11.608;2023-11-22T06:44:11;3.70;;;3.30;;
11398;SDS011;5755;48.116;11.608;2023-11-22T06:46:38;6.00;;;3.87;;
11398;SDS011;5755;48.116;11.608;2023-11-22T06:49:04;4.97;;;4.07;;
11398;SDS011;5755;48.116;11.608;2023-11-22T06:51:32;5.10;;;4.20;;
11398;SDS011;5755;48.116;11.608;2023-11-22T06:53:59;5.03;;;4.53;;
11398;SDS011;5755;48.116;11.608;2023-11-22T06:56:26;6.30;;;4.63;;
11398;SDS011;5755;48.116;11.608;2023-11-22T06:58:54;7.17;;;4.67;;
11398;SDS011;5755;48.116;11.608;2023-11-22T07:01:22;5.77;;;4.33;;
11398;SDS011;5755;48.116;11.608;2023-11-22T07:03:51;6.17;;;4.23;;
11398;SDS011;5755;48.116;11.608;2023-11-22T07:06:19;8.80;;;4.70;;
11398;SDS011;5755;48.116;11.608;2023-11-22T07:08:47;6.93;;;5.30;;
11398;SDS011;5755;48.116;11.608;2023-11-22T07:11:20;6.97;;;5.00;;
11398;SDS011;5755;48.116;11.608;2023-11-22T07:13:49;5.60;;;4.37;;
11398;SDS011;5755;48.116;11.608;2023-11-22T07:16:18;6.77;;;4.43;;
11398;SDS011;5755;48.116;11.608;2023-11-22T07:18:45;6.80;;;4.60;;
11398;SDS011;5755;48.116;11.608;2023-11-22T07:21:12;8.37;;;4.67;;
11398;SDS011;5755;48.116;11.608;2023-11-22T07:23:39;7.13;;;4.80;;
11398;SDS011;5755;48.116;11.608;2023-11-22T07:26:06;8.00;;;4.90;;
11398;SDS011;5755;48.116;11.608;2023-11-22T07:28:33;6.60;;;4.87;;
11398;SDS011;5755;48.116;11.608;2023-11-22T07:31:00;8.80;;;5.20;;
11398;SDS011;5755;48.116;11.608;2023-11-22T07:33:30;7.03;;;4.97;;
11398;SDS011;5755;48.116;11.608;2023-11-22T07:35:57;5.30;;;4.43;;
11398;SDS011;5755;48.116;11.608;2023-11-22T07:38:24;5.40;;;4.20;;
11398;SDS011;5755;48.116;11.608;2023-11-22T07:40:52;6.00;;;4.40;;
11398;SDS011;5755;48.116;11.608;2023-11-22T07:43:19;4.50;;;3.90;;
11398;SDS011;5755;48.116;11.608;2023-11-22T07:45:46;5.03;;;4.20;;
11398;SDS011;5755;48.116;11.608;2023-11-22T07:48:14;5.77;;;4.40;;
11398;SDS011;5755;48.116;11.608;2023-11-22T07:50:42;6.03;;;4.60;;
11398;SDS011;5755;48.116;11.608;2023-11-22T07:53:09;6.43;;;4.60;;
11398;SDS011;5755;48.116;11.608;2023-11-22T07:55:37;4.40;;;4.00;;
11398;SDS011;5755;48.116;11.608;2023-11-22T07:58:04;6.07;;;4.30;;
11398;SDS011;5755;48.116;11.608;2023-11-22T08:00:32;5.97;;;4.50;;
11398;SDS011;5755;48.116;11.608;2023-11-22T08:02:59;8.33;;;4.47;;
11398;SDS011;5755;48.116;11.608;2023-11-22T08:05:27;4.80;;;4.30;;
11398;SDS011;5755;48.116;11.608;2023-11-22T08:08:00;5.60;;;4.33;;
11398;SDS011;5755;48.116;11.608;2023-11-22T08:10:32;5.50;;;4.40;;
11398;SDS011;5755;48.116;11.608;2023-11-22T08:12:59;5.33;;;4.70;;
11398;SDS011;5755;48.116;11.608;2023-11-22T08:15:27;4.83;;;4.33;;
11398;SDS011;5755;48.116;11.608;2023-11-22T08:17:56;6.90;;;4.97;;
11398;SDS011;5755;48.116;11.608;2023-11-22T08:20:23;5.50;;;4.67;;
11398;SDS011;5755;48.116;11.608;2023-11-22T08:22:50;7.17;;;5.00;;
11398;SDS011;5755;48.116;11.608;2023-11-22T08:25:18;6.33;;;4.80;;
11398;SDS011;5755;48.116;11.608;2023-11-22T08:27:45;6.23;;;5.20;;
11398;SDS011;5755;48.116;11.608;2023-11-22T08:30:12;6.10;;;4.90;;
11398;SDS011;5755;48.116;11.608;2023-11-22T08:32:40;6.83;;;5.70;;
11398;SDS011;5755;48.116;11.608;2023-11-22T08:35:08;5.77;;;4.90;;
11398;SDS011;5755;48.116;11.608;2023-11-22T08:37:35;9.37;;;5.70;;
11398;SDS011;5755;48.116;11.608;2023-11-22T08:40:04;6.90;;;5.87;;
11398;SDS011;5755;48.116;11.608;2023-11-22T08:42:34;8.93;;;5.50;;
11398;SDS011;5755;48.116;11.608;2023-11-22T08:45:01;10.80;;;5.20;;
11398;SDS011;5755;48.116;11.608;2023-11-22T08:47:29;5.53;;;4.80;;
11398;SDS011;5755;48.116;11.608;2023-11-22T08:49:56;8.70;;;4.97;;
11398;SDS011;5755;48.116;11.608;2023-11-22T08:52:24;6.93;;;4.93;;
11398;SDS011;5755;48.116;11.608;2023-11-22T08:54:50;7.43;;;4.80;;
11398;SDS011;5755;48.116;11.608;2023-11-22T08:57:18;5.10;;;4.60;;
11398;SDS011;5755;48.116;11.608;2023-11-22T08:59:46;5.53;;;4.87;;
11398;SDS011;5755;48.116;11.608;2023-11-22T09:02:13;6.33;;;5.27;;
11398;SDS011;5755;48.116;11.608;2023-11-22T09:04:40;5.23;;;4.73;;
11398;SDS011;5755;48.116;11.608;2023-11-22T09:07:07;6.07;;;4.83;;
11398;SDS011;5755;48.116;11.608;2023-11-22T09:09:35;8.73;;;4.63;;
11398;SDS011;5755;48.116;11.608;2023-11-22T09:12:02;5.30;;;4.30;;
11398;SDS011;5755;48.116;11.608;2023-11-22T09:14:37;8.20;;;4.53;;
11398;SDS011;5755;48.116;11.608;2023-11-22T09:17:07;4.90;;;4.07;;
11398;SDS011;5755;48.116;11.608;2023-11-22T09:19:34;5.20;;;4.47;;
11398;SDS011;5755;48.116;11.608;2023-11-22T09:22:02;4.60;;;4.20;;
11398;SDS011;5755;48.116;11.608;2023-11-22T09:24:31;4.97;;;4.43;;
11398;SDS011;5755;48.116;11.608;2023-11-22T09:26:58;4.83;;;4.37;;
11398;SDS011;5755;48.116;11.608;2023-11-22T09:29:30;5.20;;;4.40;;
11398;SDS011;5755;48.116;11.608;2023-11-22T09:31:57;5.70;;;4.70;;
11398;SDS011;5755;48.116;11.608;2023-11-22T09:34:27;4.40;;;3.93;;
11398;SDS011;5755;48.116;11.608;2023-11-22T09:36:55;6.30;;;4.67;;
11398;SDS011;5755;48.116;11.608;2023-11-22T09:39:21;6.30;;;5.00;;
11398;SDS011;5755;48.116;11.608;2023-11-22T09:41:50;5.57;;;4.60;;
11398;SDS011;5755;48.116;11.608;2023-11-22T09:44:18;5.70;;;4.33;;
11398;SDS011;5755;48.116;11.608;2023-11-22T09:46:46;5.40;;;4.40;;
11398;SDS011;5755;48.116;11.608;2023-11-22T09:49:17;6.63;;;3.90;;
11398;SDS011;5755;48.116;11.608;2023-11-22T09:51:52;4.83;;;3.70;;
11398;SDS011;5755;48.116;11.608;2023-11-22T09:54:24;5.57;;;4.27;;
11398;SDS011;5755;48.116;11.608;2023-11-22T09:56:59;6.57;;;4.60;;
11398;SDS011;5755;48.116;11.608;2023-11-22T09:59:28;6.70;;;4.27;;
11398;SDS011;5755;48.116;11.608;2023-11-22T10:01:55;6.60;;;4.57;;
11398;SDS011;5755;48.116;11.608;2023-11-22T10:04:24;4.70;;;4.30;;
11398;SDS011;5755;48.116;11.608;2023-11-22T10:06:55;4.40;;;4.00;;
11398;SDS011;5755;48.116;11.608;2023-11-22T10:09:24;4.10;;;3.67;;
11398;SDS011;5755;48.116;11.608;2023-11-22T10:11:52;5.00;;;3.70;;
11398;SDS011;5755;48.116;11.608;2023-11-22T10:14:23;4.73;;;3.87;;
11398;SDS011;5755;48.116;11.608;2023-11-22T10:16:57;4.70;;;3.80;;
11398;SDS011;5755;48.116;11.608;2023-11-22T10:19:25;3.83;;;3.40;;
11398;SDS011;5755;48.116;11.608;2023-11-22T10:22:03;5.23;;;4.00;;
11398;SDS011;5755;48.116;11.608;2023-11-22T10:24:31;4.83;;;3.83;;
11398;SDS011;5755;48.116;11.608;2023-11-22T10:26:59;4.00;;;3.60;;
11398;SDS011;5755;48.116;11.608;2023-11-22T10:29:26;4.63;;;3.73;;
11398;SDS011;5755;48.116;11.608;2023-11-22T10:31:53;5.40;;;3.73;;
11398;SDS011;5755;48.116;11.608;2023-11-22T10:34:20;5.00;;;3.73;;
11398;SDS011;5755;48.116;11.608;2023-11-22T10:36:47;5.83;;;4.37;;
11398;SDS011;5755;48.116;11.608;2023-11-22T10:39:16;4.70;;;4.00;;
11398;SDS011;5755;48.116;11.608;2023-11-22T10:41:45;4.60;;;3.90;;
11398;SDS011;5755;48.116;11.608;2023-11-22T10:44:12;4.73;;;4.23;;
11398;SDS011;5755;48.116;11.608;2023-11-22T10:46:40;4.90;;;4.30;;
11398;SDS011;5755;48.116;11.608;2023-11-22T10:49:07;5.07;;;4.57;;
11398;SDS011;5755;48.116;11.608;2023-11-22T10:51:34;5.23;;;4.70;;
11398;SDS011;5755;48.116;11.608;2023-11-22T10:54:05;4.60;;;4.13;;
11398;SDS011;5755;48.116;11.608;2023-11-22T10:56:38;6.77;;;4.10;;
11398;SDS011;5755;48.116;11.608;2023-11-22T10:59:09;4.83;;;4.30;;
11398;SDS011;5755;48.116;11.608;2023-11-22T11:01:38;5.80;;;4.53;;
11398;SDS011;5755;48.116;11.608;2023-11-22T11:04:16;5.27;;;4.10;;
11398;SDS011;5755;48.116;11.608;2023-11-22T11:06:49;4.80;;;4.30;;
11398;SDS011;5755;48.116;11.608;2023-11-22T11:09:20;6.53;;;4.10;;
11398;SDS011;5755;48.116;11.608;2023-11-22T11:11:53;5.53;;;4.70;;
11398;SDS011;5755;48.116;11.608;2023-11-22T11:14:22;6.27;;;3.60;;
11398;SDS011;5755;48.116;11.608;2023-11-22T11:16:50;4.10;;;3.80;;
11398;SDS011;5755;48.116;11.608;2023-11-22T11:19:19;5.90;;;3.83;;
11398;SDS011;5755;48.116;11.608;2023-11-22T11:21:49;4.43;;;3.50;;
11398;SDS011;5755;48.116;11.608;2023-11-22T11:24:16;6.20;;;3.73;;
11398;SDS011;5755;48.116;11.608;2023-11-22T11:26:46;6.70;;;4.00;;
11398;SDS011;5755;48.116;11.608;2023-11-22T11:29:30;5.70;;;4.57;;
11398;SDS011;5755;48.116;11.608;2023-11-22T11:31:58;4.90;;;4.40;;
11398;SDS011;5755;48.116;11.608;2023-11-22T11:34:24;8.97;;;6.27;;
11398;SDS011;5755;48.116;11.608;2023-11-22T11:36:52;4.03;;;3.63;;
11398;SDS011;5755;48.116;11.608;2023-11-22T11:39:24;9.07;;;7.00;;
11398;SDS011;5755;48.116;11.608;2023-11-22T11:42:08;5.57;;;4.77;;
11398;SDS011;5755;48.116;11.608;2023-11-22T11:44:37;13.43;;;10.23;;
11398;SDS011;5755;48.116;11.608;2023-11-22T11:47:16;5.07;;;3.50;;
11398;SDS011;5755;48.116;11.608;2023-11-22T11:49:43;3.57;;;3.20;;
11398;SDS011;5755;48.116;11.608;2023-11-22T11:52:10;4.20;;;3.53;;
11398;SDS011;5755;48.116;11.608;2023-11-22T11:54:37;5.13;;;4.50;;
11398;SDS011;5755;48.116;11.608;2023-11-22T11:57:05;3.60;;;3.30;;
11398;SDS011;5755;48.116;11.608;2023-11-22T11:59:33;3.43;;;3.13;;
11398;SDS011;5755;48.116;11.608;2023-11-22T12:02:01;3.33;;;2.97;;
11398;SDS011;5755;48.116;11.608;2023-11-22T12:04:30;3.10;;;2.80;;
11398;SDS011;5755;48.116;11.608;2023-11-22T12:06:57;3.43;;;3.13;;
11398;SDS011;5755;48.116;11.608;2023-11-22T12:09:24;4.27;;;3.50;;
11398;SDS011;5755;48.116;11.608;2023-11-22T12:11:54;3.60;;;3.30;;
11398;SDS011;5755;48.116;11.608;2023-11-22T12:14:22;4.03;;;3.63;;
11398;SDS011;5755;48.116;11.608;2023-11-22T12:16:50;24.93;;;19.10;;
11398;SDS011;5755;48.116;11.608;2023-11-22T12:19:24;12.27;;;8.17;;
11398;SDS011;5755;48.116;11.608;2023-11-22T12:21:52;3.70;;;3.40;;
11398;SDS011;5755;48.116;11.608;2023-11-22T12:24:20;3.47;;;3.17;;
11398;SDS011;5755;48.116;11.608;2023-11-22T12:26:47;3.60;;;3.27;;
11398;SDS011;5755;48.116;11.608;2023-11-22T12:29:15;3.20;;;2.90;;
11398;SDS011;5755;48.116;11.608;2023-11-22T12:31:43;3.30;;;3.00;;
11398;SDS011;5755;48.116;11.608;2023-11-22T12:34:11;3.43;;;3.13;;
11398;SDS011;5755;48.116;11.608;2023-11-22T12:36:41;3.27;;;2.80;;
11398;SDS011;5755;48.116;11.608;2023-11-22T12:39:08;3.47;;;3.00;;
11398;SDS011;5755;48.116;11.608;2023-11-22T12:41:42;3.77;;;3.03;;
11398;SDS011;5755;48.116;11.608;2023-11-22T12:44:10;3.40;;;3.10;;
11398;SDS011;5755;48.116;11.608;2023-11-22T12:46:47;5.27;;;3.73;;
11398;SDS011;5755;48.116;11.608;2023-11-22T12:49:20;5.17;;;3.63;;
11398;SDS011;5755;48.116;11.608;2023-11-22T12:51:49;6.57;;;3.50;;
11398;SDS011;5755;48.116;11.608;2023-11-22T12:54:17;4.83;;;3.40;;
11398;SDS011;5755;48.116;11.608;2023-11-22T12:56:46;6.30;;;4.00;;
11398;SDS011;5755;48.116;11.608;2023-11-22T12:59:15;6.07;;;3.97;;
11398;SDS011;5755;48.116;11.608;2023-11-22T13:01:42;7.20;;;3.97;;
11398;SDS011;5755;48.116;11.608;2023-11-22T13:04:09;4.67;;;3.40;;
11398;SDS011;5755;48.116;11.608;2023-11-22T13:06:39;7.00;;;4.53;;
11398;SDS011;5755;48.116;11.608;2023-11-22T13:09:08;3.87;;;3.53;;
11398;SDS011;5755;48.116;11.608;2023-11-22T13:11:39;3.90;;;3.50;;
11398;SDS011;5755;48.116;11.608;2023-11-22T13:14:08;4.07;;;3.43;;
11398;SDS011;5755;48.116;11.608;2023-11-22T13:16:39;6.33;;;3.80;;
11398;SDS011;5755;48.116;11.608;2023-11-22T13:19:06;3.63;;;3.33;;
11398;SDS011;5755;48.116;11.608;2023-11-22T13:21:34;3.57;;;3.27;;
11398;SDS011;5755;48.116;11.608;2023-11-22T13:24:02;4.97;;;3.77;;
11398;SDS011;5755;48.116;11.608;2023-11-22T13:26:31;6.07;;;3.23;;
11398;SDS011;5755;48.116;11.608;2023-11-22T13:28:59;7.17;;;3.60;;
11398;SDS011;5755;48.116;11.608;2023-11-22T13:31:26;4.57;;;3.10;;
11398;SDS011;5755;48.116;11.608;2023-11-22T13:33:53;5.27;;;3.23;;
11398;SDS011;5755;48.116;11.608;2023-11-22T13:36:19;3.30;;;3.00;;
11398;SDS011;5755;48.116;11.608;2023-11-22T13:38:47;3.53;;;2.90;;
11398;SDS011;5755;48.116;11.608;2023-11-22T13:41:13;3.00;;;2.70;;
11398;SDS011;5755;48.116;11.608;2023-11-22T13:43:41;4.67;;;3.30;;
11398;SDS011;5755;48.116;11.608;2023-11-22T13:46:08;3.40;;;3.10;;
11398;SDS011;5755;48.116;11.608;2023-11-22T13:48:37;4.93;;;3.30;;
11398;SDS011;5755;48.116;11.608;2023-11-22T13:51:04;3.33;;;3.03;;
11398;SDS011;5755;48.116;11.608;2023-11-22T13:53:33;7.57;;;3.40;;
11398;SDS011;5755;48.116;11.608;2023-11-22T13:56:03;7.67;;;3.97;;
11398;SDS011;5755;48.116;11.608;2023-11-22T13:58:33;5.27;;;3.20;;
11398;SDS011;5755;48.116;11.608;2023-11-22T14:01:02;3.70;;;3.30;;
11398;SDS011;5755;48.116;11.608;2023-11-22T14:03:31;3.63;;;3.27;;
11398;SDS011;5755;48.116;11.608;2023-11-22T14:05:58;8.40;;;6.57;;
11398;SDS011;5755;48.116;11.608;2023-11-22T14:08:26;4.23;;;3.23;;
11398;SDS011;5755;48.116;11.608;2023-11-22T14:10:53;3.77;;;3.00;;
11398;SDS011;5755;48.116;11.608;2023-11-22T14:13:20;3.27;;;2.93;;
11398;SDS011;5755;48.116;11.608;2023-11-22T14:15:47;15.67;;;11.43;;
11398;SDS011;5755;48.116;11.608;2023-11-22T14:18:15;4.77;;;3.87;;
11398;SDS011;5755;48.116;11.608;2023-11-22T14:20:43;10.07;;;7.47;;
11398;SDS011;5755;48.116;11.608;2023-11-22T14:23:09;5.67;;;3.57;;
11398;SDS011;5755;48.116;11.608;2023-11-22T14:25:36;4.27;;;2.80;;
11398;SDS011;5755;48.116;11.608;2023-11-22T14:28:03;3.13;;;2.80;;
11398;SDS011;5755;48.116;11.608;2023-11-22T14:30:30;3.47;;;3.17;;
11398;SDS011;5755;48.116;11.608;2023-11-22T14:33:00;3.50;;;3.10;;
11398;SDS011;5755;48.116;11.608;2023-11-22T14:35:34;4.10;;;3.10;;
11398;SDS011;5755;48.116;11.608;2023-11-22T14:38:03;3.60;;;3.30;;
11398;SDS011;5755;48.116;11.608;2023-11-22T14:40:31;3.27;;;2.97;;
11398;SDS011;5755;48.116;11.608;2023-11-22T14:42:58;3.60;;;3.30;;
11398;SDS011;5755;48.116;11.608;2023-11-22T14:45:27;3.97;;;3.30;;
11398;SDS011;5755;48.116;11.608;2023-11-22T14:47:54;3.60;;;3.30;;
11398;SDS011;5755;48.116;11.608;2023-11-22T14:50:21;3.50;;;3.20;;